Terminal Aerodrome Forecast
Issued by NWS

Home | Current Version | Previous Version | Text Only | Print | Product List | Glossary On
Versions: 1 2 3 4 5 6 7 8 9 10 11 12 13 14 15 16 17 18 19 20
000
FTUS41 KBGM 260531
TAFELM
TAF
KELM 260531Z 2606/2706 VRB03KT P6SM OVC004
      TEMPO 2608/2612 2SM BR
     FM261400 VRB04KT 5SM -RA BR OVC015
     FM261700 16010KT P6SM -RA OVC012
     FM270300 18005KT 4SM BR OVC005=

USA.gov is the U.S. government's official web portal to all federal, state and local government web resources and services.